createdAt,value
2023-04-18T00:00:09.108Z,85.67
2023-04-18T00:01:09.143Z,87.16
2023-04-18T00:02:09.276Z,84.33
2023-04-18T00:03:09.420Z,80.15
2023-04-18T00:04:09.424Z,90.33
2023-04-18T00:05:09.362Z,85.68
2023-04-18T00:06:09.300Z,78.91
2023-04-18T00:07:09.357Z,82.75
2023-04-18T00:08:09.371Z,80.90
2023-04-18T00:09:09.482Z,70.87
2023-04-18T00:10:09.450Z,73.14
2023-04-18T00:11:09.468Z,72.43
2023-04-18T00:12:09.510Z,74.46
2023-04-18T00:13:09.545Z,75.30
2023-04-18T00:14:09.571Z,73.52
2023-04-18T00:15:09.635Z,75.19
2023-04-18T00:16:09.636Z,79.63
2023-04-18T00:17:09.748Z,95.21
2023-04-18T00:18:09.735Z,94.71
2023-04-18T00:19:09.736Z,94.94
2023-04-18T00:20:09.791Z,94.02
2023-04-18T00:21:09.823Z,84.63
2023-04-18T00:22:09.861Z,82.61
2023-04-18T00:23:11.536Z,82.90
2023-04-18T00:24:09.896Z,81.06
2023-04-18T00:25:09.858Z,85.51
2023-04-18T00:26:09.844Z,90.16
2023-04-18T00:27:09.843Z,88.52
2023-04-18T00:28:09.870Z,83.22
2023-04-18T00:29:09.843Z,85.59
2023-04-18T00:30:09.840Z,92.72
2023-04-18T00:31:09.850Z,91.56
2023-04-18T00:32:09.825Z,90.93
2023-04-18T00:33:09.805Z,93.90
2023-04-18T00:34:09.829Z,101.18
2023-04-18T00:35:09.780Z,100.80
2023-04-18T00:36:09.781Z,105.77
2023-04-18T00:37:09.764Z,103.31
2023-04-18T00:38:09.767Z,102.56
2023-04-18T00:39:09.770Z,102.93
2023-04-18T00:40:09.756Z,102.73
2023-04-18T00:41:09.732Z,103.88
2023-04-18T00:42:09.740Z,107.54
2023-04-18T00:43:09.746Z,107.24
2023-04-18T00:44:09.743Z,106.84
2023-04-18T00:45:09.714Z,105.56
2023-04-18T00:46:09.733Z,106.27
2023-04-18T00:47:09.718Z,103.50
2023-04-18T00:48:09.687Z,103.97
2023-04-18T00:49:09.701Z,103.88
2023-04-18T00:50:09.699Z,106.95
2023-04-18T00:51:09.704Z,113.06
2023-04-18T00:52:09.682Z,110.35
2023-04-18T00:53:09.669Z,117.21
2023-04-18T00:54:09.683Z,121.00
2023-04-18T00:55:09.657Z,119.25
2023-04-18T00:56:09.629Z,113.43
2023-04-18T00:57:09.642Z,120.82
2023-04-18T00:58:09.623Z,117.19
2023-04-18T00:59:09.629Z,116.07
2023-04-18T01:00:09.630Z,120.58
2023-04-18T01:01:09.641Z,127.03
2023-04-18T01:02:09.614Z,133.50
2023-04-18T01:03:09.687Z,127.73
2023-04-18T01:04:09.716Z,133.22
2023-04-18T01:05:09.599Z,130.99
2023-04-18T01:06:09.555Z,127.53
2023-04-18T01:07:09.551Z,121.74
2023-04-18T01:08:09.544Z,118.24
2023-04-18T01:09:09.554Z,122.49
2023-04-18T01:10:09.555Z,118.19
2023-04-18T01:11:09.547Z,126.01
2023-04-18T01:12:09.539Z,124.82
2023-04-18T01:13:09.510Z,141.21
2023-04-18T01:14:09.528Z,139.61
2023-04-18T01:15:09.566Z,138.90
2023-04-18T01:16:09.653Z,132.94
2023-04-18T01:17:09.607Z,120.94
2023-04-18T01:18:09.657Z,121.97
2023-04-18T01:19:09.664Z,117.82
2023-04-18T01:20:09.712Z,119.57
2023-04-18T01:21:09.730Z,124.90
2023-04-18T01:22:09.760Z,128.92
2023-04-18T01:23:09.801Z,130.16
2023-04-18T01:24:09.827Z,131.27
2023-04-18T01:25:09.924Z,128.19
2023-04-18T01:26:09.913Z,125.55
2023-04-18T01:27:09.928Z,121.76
2023-04-18T01:28:09.979Z,126.29
2023-04-18T01:29:10.013Z,129.31
2023-04-18T01:30:10.069Z,123.11
2023-04-18T01:31:10.152Z,127.08
2023-04-18T01:32:10.111Z,141.74
2023-04-18T01:33:10.161Z,146.76
2023-04-18T01:34:10.201Z,147.77
2023-04-18T01:35:10.242Z,145.64
2023-04-18T01:36:10.269Z,141.68
2023-04-18T01:37:10.326Z,140.23
2023-04-18T01:38:10.369Z,140.68
2023-04-18T01:39:10.392Z,142.17
2023-04-18T01:40:10.442Z,132.91
2023-04-18T01:41:10.486Z,140.49
2023-04-18T01:42:10.501Z,129.88
2023-04-18T01:43:10.576Z,132.86
2023-04-18T01:44:10.604Z,132.64
2023-04-18T01:45:10.677Z,132.18
2023-04-18T01:46:10.685Z,126.11
2023-04-18T01:47:10.741Z,125.94
2023-04-18T01:48:10.724Z,128.18
2023-04-18T01:49:10.791Z,128.60
2023-04-18T01:50:10.817Z,123.97
2023-04-18T01:51:10.866Z,123.89
2023-04-18T01:52:10.878Z,121.57
2023-04-18T01:53:10.916Z,120.00
2023-04-18T01:54:10.960Z,108.34
2023-04-18T01:55:10.972Z,106.15
2023-04-18T01:56:10.997Z,106.82
2023-04-18T01:57:11.059Z,105.96
2023-04-18T01:58:11.044Z,110.05
2023-04-18T01:59:11.105Z,100.81
2023-04-18T02:00:11.131Z,94.19
2023-04-18T02:01:11.197Z,94.54
2023-04-18T02:02:11.285Z,92.62
2023-04-18T02:03:11.334Z,101.61
2023-04-18T02:04:11.294Z,109.62
2023-04-18T02:05:11.307Z,119.75
2023-04-18T02:06:11.515Z,113.41
2023-04-18T02:07:11.336Z,112.43
2023-04-18T02:08:11.351Z,106.92
2023-04-18T02:09:11.400Z,117.81
2023-04-18T02:10:11.415Z,121.60
2023-04-18T02:11:11.486Z,125.98
2023-04-18T02:12:11.472Z,127.32
2023-04-18T02:13:11.553Z,131.28
2023-04-18T02:14:11.818Z,128.31
2023-04-18T02:15:11.644Z,130.02
2023-04-18T02:16:11.682Z,142.69
2023-04-18T02:17:11.643Z,143.37
2023-04-18T02:18:11.688Z,143.60
2023-04-18T02:19:11.692Z,143.94
2023-04-18T02:20:11.739Z,142.80
2023-04-18T02:21:11.772Z,135.21
2023-04-18T02:22:11.786Z,138.52
2023-04-18T02:23:11.841Z,130.37
2023-04-18T02:24:12.109Z,125.86
2023-04-18T02:25:11.904Z,133.31
2023-04-18T02:26:11.951Z,134.02
2023-04-18T02:27:11.989Z,141.00
2023-04-18T02:28:12.009Z,135.43
2023-04-18T02:29:12.038Z,137.11
2023-04-18T02:30:12.084Z,129.57
2023-04-18T02:31:12.088Z,137.62
2023-04-18T02:32:12.256Z,140.30
2023-04-18T02:33:12.155Z,142.79
2023-04-18T02:34:12.359Z,136.11
2023-04-18T02:35:12.230Z,135.33
2023-04-18T02:36:12.257Z,129.74
2023-04-18T02:37:12.306Z,135.90
2023-04-18T02:38:12.307Z,142.53
2023-04-18T02:39:12.373Z,144.57
2023-04-18T02:40:12.383Z,138.97
2023-04-18T02:41:12.408Z,139.93
2023-04-18T02:42:12.459Z,147.37
2023-04-18T02:43:12.477Z,144.25
2023-04-18T02:44:12.776Z,137.26
2023-04-18T02:45:12.561Z,146.78
2023-04-18T02:46:12.612Z,152.20
2023-04-18T02:47:12.613Z,151.06
2023-04-18T02:48:12.731Z,152.73
2023-04-18T02:49:12.698Z,153.84
2023-04-18T02:50:12.719Z,153.10
2023-04-18T02:51:12.776Z,154.16
2023-04-18T02:52:12.785Z,156.21
2023-04-18T02:53:12.854Z,152.26
2023-04-18T02:54:13.144Z,153.57
2023-04-18T02:55:12.897Z,151.70
2023-04-18T02:56:12.933Z,147.83
2023-04-18T02:57:12.997Z,153.45
2023-04-18T02:58:13.015Z,157.06
2023-04-18T02:59:13.035Z,159.79
2023-04-18T03:00:13.068Z,162.45
2023-04-18T03:01:13.130Z,162.67
2023-04-18T03:02:13.211Z,156.56
2023-04-18T03:03:13.225Z,154.49
2023-04-18T03:04:13.610Z,149.66
2023-04-18T03:05:13.265Z,152.55
2023-04-18T03:06:13.287Z,156.70
2023-04-18T03:07:13.307Z,157.97
2023-04-18T03:08:13.351Z,150.62
2023-04-18T03:09:13.400Z,141.43
2023-04-18T03:10:13.428Z,133.94
2023-04-18T03:11:13.464Z,143.10
2023-04-18T03:12:13.510Z,150.43
2023-04-18T03:13:13.517Z,139.73
2023-04-18T03:14:13.642Z,136.52
2023-04-18T03:15:13.569Z,127.95
2023-04-18T03:16:13.658Z,128.91
2023-04-18T03:17:13.634Z,136.44
2023-04-18T03:18:13.676Z,141.72
2023-04-18T03:19:13.709Z,134.28
2023-04-18T03:20:13.728Z,124.89
2023-04-18T03:21:13.781Z,133.68
2023-04-18T03:22:13.800Z,135.07
2023-04-18T03:23:13.839Z,138.00
2023-04-18T03:24:14.055Z,136.34
2023-04-18T03:25:13.886Z,137.87
2023-04-18T03:26:13.974Z,142.20
2023-04-18T03:27:13.968Z,135.89
2023-04-18T03:28:14.003Z,130.45
2023-04-18T03:29:14.035Z,130.56
2023-04-18T03:30:14.083Z,132.97
2023-04-18T03:31:14.092Z,142.89
2023-04-18T03:32:14.107Z,134.02
2023-04-18T03:33:14.147Z,144.52
2023-04-18T03:34:14.363Z,143.76
2023-04-18T03:35:14.241Z,134.38
2023-04-18T03:36:14.279Z,133.64
2023-04-18T03:37:14.318Z,138.94
2023-04-18T03:38:14.327Z,128.21
2023-04-18T03:39:14.354Z,129.96
2023-04-18T03:40:14.420Z,138.00
2023-04-18T03:41:14.464Z,129.14
2023-04-18T03:42:14.474Z,133.22
2023-04-18T03:43:14.522Z,131.62
2023-04-18T03:44:14.858Z,127.81
2023-04-18T03:45:14.597Z,130.81
2023-04-18T03:46:14.695Z,125.57
2023-04-18T03:47:14.662Z,123.91
2023-04-18T03:48:14.678Z,125.02
2023-04-18T03:49:14.712Z,134.03
2023-04-18T03:50:14.741Z,134.96
2023-04-18T03:51:14.900Z,143.26
2023-04-18T03:52:14.841Z,135.67
2023-04-18T03:53:14.854Z,136.52
2023-04-18T03:54:15.097Z,130.46
2023-04-18T03:55:14.941Z,125.37
2023-04-18T03:56:14.962Z,125.66
2023-04-18T03:57:15.022Z,126.69
2023-04-18T03:58:15.051Z,134.28
2023-04-18T03:59:15.065Z,126.84
2023-04-18T04:00:15.123Z,136.62
2023-04-18T04:01:15.145Z,138.21
2023-04-18T04:02:15.286Z,133.56
2023-04-18T04:03:15.326Z,139.51
2023-04-18T04:04:15.657Z,130.50
2023-04-18T04:05:15.307Z,134.78
2023-04-18T04:06:15.339Z,125.20
2023-04-18T04:07:15.401Z,130.39
2023-04-18T04:08:15.405Z,121.52
2023-04-18T04:09:15.418Z,122.74
2023-04-18T04:10:15.454Z,124.14
2023-04-18T04:11:15.492Z,130.99
2023-04-18T04:12:15.548Z,140.49
2023-04-18T04:13:15.549Z,149.78
2023-04-18T04:14:15.766Z,142.34
2023-04-18T04:15:15.612Z,147.39
2023-04-18T04:16:15.699Z,138.25
2023-04-18T04:17:15.687Z,131.07
2023-04-18T04:18:15.746Z,142.94
2023-04-18T04:19:15.764Z,143.58
2023-04-18T04:20:15.816Z,140.46
2023-04-18T04:21:15.846Z,137.91
2023-04-18T04:22:15.881Z,135.56
2023-04-18T04:23:15.917Z,134.37
2023-04-18T04:24:16.194Z,134.20
2023-04-18T04:25:15.999Z,124.43
2023-04-18T04:26:16.035Z,122.97
2023-04-18T04:27:16.056Z,107.98
2023-04-18T04:28:16.104Z,100.93
2023-04-18T04:29:16.133Z,100.36
2023-04-18T04:30:16.161Z,107.82
2023-04-18T04:31:16.330Z,104.85
2023-04-18T04:32:16.237Z,106.63
2023-04-18T04:33:16.328Z,111.04
2023-04-18T04:34:16.427Z,124.18
2023-04-18T04:35:16.353Z,127.09
2023-04-18T04:36:18.587Z,129.62
2023-04-18T04:37:16.628Z,126.65
2023-04-18T04:38:16.656Z,126.91
2023-04-18T04:39:16.695Z,127.53
2023-04-18T04:40:16.734Z,134.51
2023-04-18T04:41:16.771Z,132.53
2023-04-18T04:42:16.791Z,134.70
2023-04-18T04:43:16.839Z,137.45
2023-04-18T04:44:16.940Z,139.07
2023-04-18T04:45:16.917Z,148.53
2023-04-18T04:46:16.994Z,157.58
2023-04-18T04:47:17.004Z,159.26
2023-04-18T04:48:17.027Z,159.19
2023-04-18T04:49:17.058Z,156.81
2023-04-18T04:50:17.112Z,157.74
2023-04-18T04:51:17.149Z,159.00
2023-04-18T04:52:17.155Z,159.95
2023-04-18T04:53:17.189Z,168.26
2023-04-18T04:54:17.263Z,166.42
2023-04-18T04:55:17.292Z,157.49
2023-04-18T04:56:17.330Z,154.48
2023-04-18T04:57:17.369Z,149.32
2023-04-18T04:58:17.380Z,155.13
2023-04-18T04:59:17.382Z,154.61
2023-04-18T05:00:17.395Z,147.07
2023-04-18T05:01:17.376Z,141.92
2023-04-18T05:02:17.465Z,139.37
2023-04-18T05:03:17.473Z,133.02
2023-04-18T05:04:17.823Z,131.52
2023-04-18T05:05:17.357Z,130.26
2023-04-18T05:06:17.334Z,128.95
2023-04-18T05:07:17.316Z,131.53
2023-04-18T05:08:17.345Z,126.99
2023-04-18T05:09:17.336Z,131.19
2023-04-18T05:10:17.325Z,138.99
2023-04-18T05:11:17.348Z,141.97
2023-04-18T05:12:17.378Z,146.84
2023-04-18T05:13:17.445Z,149.80
2023-04-18T05:14:17.495Z,151.09
2023-04-18T05:15:17.463Z,155.63
2023-04-18T05:16:17.529Z,162.37
2023-04-18T05:17:17.537Z,170.14
2023-04-18T05:18:17.573Z,187.34
2023-04-18T05:19:17.601Z,193.17
2023-04-18T05:20:17.628Z,203.81
2023-04-18T05:21:17.642Z,209.09
2023-04-18T05:22:17.712Z,213.77
2023-04-18T05:23:17.734Z,215.64
2023-04-18T05:24:17.728Z,224.31
2023-04-18T05:25:17.801Z,229.00
2023-04-18T05:26:17.782Z,228.71
2023-04-18T05:27:18.295Z,229.04
2023-04-18T05:28:18.130Z,233.80
2023-04-18T05:29:17.884Z,243.99
2023-04-18T05:30:17.893Z,258.03
2023-04-18T05:31:17.947Z,249.63
2023-04-18T05:32:17.950Z,245.71
2023-04-18T05:33:18.005Z,246.33
2023-04-18T05:34:18.028Z,249.07
2023-04-18T05:35:18.015Z,239.65
2023-04-18T05:36:18.043Z,247.81
2023-04-18T05:37:18.105Z,261.16
2023-04-18T05:38:18.113Z,249.73
2023-04-18T05:39:18.099Z,251.93
2023-04-18T05:40:18.160Z,242.04
2023-04-18T05:41:18.159Z,243.53
2023-04-18T05:42:18.223Z,248.31
2023-04-18T05:43:18.186Z,249.60
2023-04-18T05:44:18.520Z,250.00
2023-04-18T05:45:18.191Z,247.83
2023-04-18T05:46:18.158Z,247.87
2023-04-18T05:47:18.168Z,246.93
2023-04-18T05:48:18.187Z,250.00
2023-04-18T05:49:18.201Z,248.48
2023-04-18T05:50:18.239Z,250.37
2023-04-18T05:51:18.230Z,246.27
2023-04-18T05:52:18.284Z,245.61
2023-04-18T05:53:18.300Z,243.80
2023-04-18T05:54:18.381Z,245.02
2023-04-18T05:55:18.641Z,244.59
2023-04-18T05:56:18.499Z,249.04
2023-04-18T05:57:18.573Z,246.79
2023-04-18T05:58:18.647Z,244.18
2023-04-18T05:59:18.690Z,244.25
2023-04-18T06:00:18.784Z,249.17
2023-04-18T06:01:18.828Z,249.64
2023-04-18T06:02:18.961Z,249.96
2023-04-18T06:03:19.289Z,247.50
2023-04-18T06:04:19.242Z,247.15
2023-04-18T06:05:19.234Z,243.38
2023-04-18T06:06:19.065Z,243.29
2023-04-18T06:07:19.105Z,242.09
2023-04-18T06:08:19.609Z,239.76
2023-04-18T06:09:19.212Z,241.43
2023-04-18T06:10:19.273Z,238.75
2023-04-18T06:11:19.317Z,225.80
2023-04-18T06:12:19.344Z,211.94
2023-04-18T06:13:19.402Z,196.70
2023-04-18T06:14:19.467Z,180.82
2023-04-18T06:15:19.490Z,197.69
2023-04-18T06:16:19.540Z,202.89
2023-04-18T06:17:19.525Z,209.80
2023-04-18T06:18:19.602Z,218.64
2023-04-18T06:19:19.656Z,210.47
2023-04-18T06:20:19.727Z,216.90
2023-04-18T06:21:19.798Z,222.22
2023-04-18T06:22:19.867Z,224.05
2023-04-18T06:23:20.143Z,228.36
2023-04-18T06:24:19.993Z,228.45
2023-04-18T06:25:20.017Z,231.46
2023-04-18T06:26:20.077Z,231.48
2023-04-18T06:27:30.507Z,227.18
2023-04-18T06:28:21.143Z,226.86
2023-04-18T06:29:20.091Z,223.10
2023-04-18T06:30:20.118Z,206.73
2023-04-18T06:31:20.118Z,205.39
2023-04-18T06:32:20.106Z,201.67
2023-04-18T06:33:20.123Z,214.58
2023-04-18T06:34:20.106Z,219.28
2023-04-18T06:35:20.048Z,275.84
2023-04-18T06:36:20.101Z,243.75
2023-04-18T06:37:20.047Z,231.29
2023-04-18T06:38:20.067Z,231.66
2023-04-18T06:39:20.109Z,230.46
2023-04-18T06:40:20.147Z,233.12
2023-04-18T06:41:20.184Z,238.03
2023-04-18T06:42:22.012Z,250.00
2023-04-18T06:43:20.250Z,235.69
2023-04-18T06:44:20.341Z,227.78
2023-04-18T06:45:20.659Z,228.69
2023-04-18T06:46:20.467Z,217.52
2023-04-18T06:47:20.412Z,218.17
2023-04-18T06:48:20.447Z,219.68
2023-04-18T06:49:23.419Z,225.08
2023-04-18T06:50:21.501Z,225.18
2023-04-18T06:51:20.466Z,224.15
2023-04-18T06:52:20.433Z,223.38
2023-04-18T06:53:20.477Z,225.28
2023-04-18T06:54:20.427Z,231.71
2023-04-18T06:55:20.433Z,235.02
2023-04-18T06:56:20.406Z,231.72
2023-04-18T06:57:20.399Z,229.33
2023-04-18T06:58:21.154Z,237.60
2023-04-18T06:59:20.407Z,239.81
2023-04-18T07:00:20.399Z,221.98
2023-04-18T07:01:20.472Z,222.48
2023-04-18T07:02:20.449Z,227.99
2023-04-18T07:03:21.011Z,230.86
2023-04-18T07:04:20.517Z,228.66
2023-04-18T07:05:20.363Z,226.50
2023-04-18T07:06:20.361Z,215.89
2023-04-18T07:07:20.355Z,208.20
2023-04-18T07:08:20.359Z,209.90
2023-04-18T07:09:20.382Z,204.88
2023-04-18T07:10:20.390Z,210.98
2023-04-18T07:11:20.424Z,208.20
2023-04-18T07:12:20.423Z,201.98
2023-04-18T07:13:20.486Z,190.03
2023-04-18T07:14:20.484Z,190.52
2023-04-18T07:15:20.546Z,192.59
2023-04-18T07:16:20.607Z,190.12
2023-04-18T07:17:20.541Z,194.84
2023-04-18T07:18:30.339Z,175.76
2023-04-18T07:19:21.643Z,176.13
2023-04-18T07:20:20.546Z,178.55
2023-04-18T07:21:20.536Z,184.27
2023-04-18T07:22:20.541Z,192.40
2023-04-18T07:23:20.551Z,192.67
2023-04-18T07:24:20.567Z,192.56
2023-04-18T07:25:20.553Z,201.95
2023-04-18T07:26:20.565Z,204.39
2023-04-18T07:27:20.521Z,191.39
2023-04-18T07:28:20.502Z,189.60
2023-04-18T07:29:20.516Z,189.62
2023-04-18T07:30:20.687Z,197.60
2023-04-18T07:31:20.599Z,192.52
2023-04-18T07:32:20.563Z,196.64
2023-04-18T07:33:20.474Z,199.11
2023-04-18T07:34:20.681Z,199.50
2023-04-18T07:35:20.656Z,202.59
2023-04-18T07:36:20.489Z,202.28
2023-04-18T07:37:20.495Z,194.49
2023-04-18T07:38:20.581Z,188.42
2023-04-18T07:39:20.564Z,190.54
2023-04-18T07:40:20.674Z,196.48
2023-04-18T07:41:20.593Z,187.61
2023-04-18T07:42:21.157Z,188.13
2023-04-18T07:43:20.957Z,190.64
2023-04-18T07:44:20.667Z,187.39
2023-04-18T07:45:20.635Z,188.27
2023-04-18T07:46:20.699Z,188.50
2023-04-18T07:47:22.296Z,195.45
2023-04-18T07:48:20.689Z,192.80
2023-04-18T07:49:21.166Z,194.14
2023-04-18T07:50:20.708Z,200.52
2023-04-18T07:51:20.763Z,204.18
2023-04-18T07:52:20.812Z,205.61
2023-04-18T07:53:20.901Z,206.89
2023-04-18T07:54:20.976Z,203.09
2023-04-18T07:55:21.033Z,200.30
2023-04-18T07:56:21.062Z,187.32
2023-04-18T07:57:21.123Z,192.77
2023-04-18T07:58:21.168Z,202.87
2023-04-18T07:59:21.251Z,200.45
2023-04-18T08:00:21.280Z,200.17
2023-04-18T08:01:21.324Z,203.90
2023-04-18T08:02:21.540Z,210.74
2023-04-18T08:03:21.499Z,209.96
2023-04-18T08:04:21.616Z,210.53
2023-04-18T08:05:21.597Z,213.00
2023-04-18T08:06:21.590Z,212.04
2023-04-18T08:07:21.645Z,209.29
2023-04-18T08:08:22.698Z,205.15
2023-04-18T08:09:21.926Z,209.48
2023-04-18T08:10:23.733Z,209.03
2023-04-18T08:11:21.863Z,204.52
2023-04-18T08:12:21.923Z,184.86
2023-04-18T08:13:21.984Z,185.32
2023-04-18T08:14:22.179Z,185.96
2023-04-18T08:15:22.133Z,181.62
2023-04-18T08:16:22.147Z,178.82
2023-04-18T08:17:22.076Z,173.24
2023-04-18T08:18:22.069Z,184.97
2023-04-18T08:19:22.202Z,193.50
2023-04-18T08:20:22.076Z,192.33
2023-04-18T08:21:22.185Z,188.53
2023-04-18T08:22:22.109Z,188.34
2023-04-18T08:23:22.155Z,192.51
2023-04-18T08:24:22.181Z,196.98
2023-04-18T08:25:22.116Z,197.29
2023-04-18T08:26:22.157Z,187.41
2023-04-18T08:27:22.148Z,190.06
2023-04-18T08:28:22.180Z,194.29
2023-04-18T08:29:22.177Z,194.19
2023-04-18T08:30:22.141Z,180.34
2023-04-18T08:31:22.145Z,180.48
2023-04-18T08:32:22.184Z,197.47
2023-04-18T08:33:22.151Z,201.72
2023-04-18T08:34:22.157Z,202.63
2023-04-18T08:35:22.155Z,192.43
2023-04-18T08:36:22.160Z,187.92
2023-04-18T08:37:22.164Z,189.76
2023-04-18T08:38:22.188Z,194.76
2023-04-18T08:39:23.679Z,184.29
2023-04-18T08:40:22.222Z,188.65
2023-04-18T08:41:22.215Z,193.35
2023-04-18T08:42:22.191Z,197.63
2023-04-18T08:43:22.242Z,205.27
2023-04-18T08:44:22.228Z,211.16
2023-04-18T08:45:22.171Z,215.37
2023-04-18T08:46:22.358Z,216.21
2023-04-18T08:47:22.251Z,220.18
2023-04-18T08:48:22.182Z,220.61
2023-04-18T08:49:22.176Z,225.72
2023-04-18T08:50:22.147Z,226.81
2023-04-18T08:51:22.164Z,227.27
2023-04-18T08:52:22.151Z,216.36
2023-04-18T08:53:22.121Z,214.98
2023-04-18T08:54:22.138Z,209.40
2023-04-18T08:55:22.236Z,195.39
2023-04-18T08:56:22.200Z,205.47
2023-04-18T08:57:22.128Z,210.15
2023-04-18T08:58:22.094Z,207.21
2023-04-18T08:59:22.074Z,208.31
2023-04-18T09:00:22.082Z,208.39
2023-04-18T09:01:22.182Z,209.52
2023-04-18T09:02:22.177Z,209.32
2023-04-18T09:03:22.060Z,210.61
2023-04-18T09:04:22.098Z,214.24
2023-04-18T09:05:22.065Z,210.32
2023-04-18T09:06:22.187Z,197.34
2023-04-18T09:07:22.063Z,179.37
2023-04-18T09:08:22.336Z,169.83
2023-04-18T09:09:22.011Z,171.16
2023-04-18T09:10:22.028Z,178.59
2023-04-18T09:11:22.260Z,179.13
2023-04-18T09:12:22.008Z,181.74
2023-04-18T09:13:23.552Z,191.55
2023-04-18T09:14:22.248Z,198.28
2023-04-18T09:15:22.233Z,191.37
2023-04-18T09:16:22.757Z,195.03
2023-04-18T09:17:22.364Z,195.60
2023-04-18T09:18:22.376Z,191.91
2023-04-18T09:19:22.454Z,192.74
2023-04-18T09:20:22.514Z,194.85
2023-04-18T09:21:22.695Z,195.23
2023-04-18T09:22:22.637Z,191.99
2023-04-18T09:23:22.712Z,194.68
2023-04-18T09:24:22.767Z,195.66
2023-04-18T09:25:23.222Z,195.13
2023-04-18T09:26:22.932Z,161.36
2023-04-18T09:27:22.945Z,132.42
2023-04-18T09:28:22.912Z,132.26
2023-04-18T09:29:22.940Z,69.90
2023-04-18T09:30:23.216Z,53.90
2023-04-18T09:31:23.251Z,20.34
2023-04-18T09:32:23.060Z,0.00
2023-04-18T09:33:23.102Z,0.00
2023-04-18T09:34:23.114Z,17.74
2023-04-18T09:35:23.112Z,26.17
2023-04-18T09:36:23.825Z,41.95
2023-04-18T09:37:23.497Z,53.99
2023-04-18T09:38:23.258Z,69.34
2023-04-18T09:39:23.248Z,85.30
2023-04-18T09:40:23.355Z,99.42
2023-04-18T09:41:23.750Z,105.26
2023-04-18T09:42:23.329Z,113.08
2023-04-18T09:43:23.326Z,124.16
2023-04-18T09:44:23.331Z,133.09
2023-04-18T09:45:23.325Z,142.30
2023-04-18T09:46:23.397Z,149.65
2023-04-18T09:47:23.372Z,157.27
2023-04-18T09:48:23.328Z,161.62
2023-04-18T09:49:24.212Z,164.06
2023-04-18T09:50:23.383Z,177.88
2023-04-18T09:51:23.739Z,170.55
2023-04-18T09:52:23.346Z,170.89
2023-04-18T09:53:23.349Z,179.20
2023-04-18T09:54:23.418Z,173.11
2023-04-18T09:55:23.485Z,172.03
2023-04-18T09:56:23.499Z,176.44
2023-04-18T09:57:23.553Z,175.42
2023-04-18T09:58:23.619Z,180.11
2023-04-18T09:59:23.653Z,182.29
2023-04-18T10:00:24.447Z,184.18
2023-04-18T10:01:23.830Z,186.83
2023-04-18T10:02:23.932Z,185.37
2023-04-18T10:03:23.979Z,180.21
2023-04-18T10:04:24.001Z,176.94
2023-04-18T10:05:24.035Z,178.93
2023-04-18T10:06:24.070Z,186.03
2023-04-18T10:07:24.126Z,187.99
2023-04-18T10:08:24.191Z,186.97
2023-04-18T10:09:24.256Z,180.68
2023-04-18T10:10:24.335Z,179.23
2023-04-18T10:11:24.411Z,178.64
2023-04-18T10:12:24.408Z,178.17
2023-04-18T10:13:24.477Z,182.67
2023-04-18T10:14:24.521Z,185.78
2023-04-18T10:15:24.585Z,189.66
2023-04-18T10:16:24.699Z,184.98
2023-04-18T10:17:24.697Z,183.11
2023-04-18T10:18:24.788Z,187.93
2023-04-18T10:19:24.776Z,193.32
2023-04-18T10:20:24.865Z,182.13
2023-04-18T10:21:25.222Z,113.92
2023-04-18T10:22:24.944Z,61.20
2023-04-18T10:23:26.497Z,36.12
2023-04-18T10:24:25.174Z,0.72
2023-04-18T10:25:25.197Z,6.06
2023-04-18T10:26:25.257Z,12.79
2023-04-18T10:27:25.257Z,30.01
2023-04-18T10:28:25.293Z,44.68
2023-04-18T10:29:25.337Z,53.93
2023-04-18T10:30:25.365Z,68.33
2023-04-18T10:31:25.467Z,85.20
2023-04-18T10:32:25.470Z,104.97
2023-04-18T10:33:30.412Z,111.04
2023-04-18T10:34:26.454Z,111.07
2023-04-18T10:35:25.436Z,112.27
2023-04-18T10:36:25.434Z,118.74
2023-04-18T10:37:25.440Z,133.88
2023-04-18T10:38:25.417Z,164.94
2023-04-18T10:39:25.408Z,177.01
2023-04-18T10:40:25.404Z,173.52
2023-04-18T10:41:25.404Z,173.53
2023-04-18T10:42:25.401Z,180.04
2023-04-18T10:43:25.399Z,181.11
2023-04-18T10:44:25.361Z,186.74
2023-04-18T10:45:25.365Z,186.97
2023-04-18T10:46:31.793Z,187.14
2023-04-18T10:47:26.420Z,187.32
2023-04-18T10:48:25.349Z,188.34
2023-04-18T10:49:27.012Z,189.92
2023-04-18T10:50:25.346Z,194.62
2023-04-18T10:51:25.359Z,198.71
2023-04-18T10:52:25.337Z,206.27
2023-04-18T10:53:25.311Z,205.42
2023-04-18T10:54:25.312Z,206.60
2023-04-18T10:55:25.292Z,207.58
2023-04-18T10:56:25.329Z,211.22
2023-04-18T10:57:25.288Z,214.27
2023-04-18T10:58:25.280Z,215.25
2023-04-18T10:59:25.287Z,209.67
2023-04-18T11:00:25.259Z,207.62
2023-04-18T11:01:25.382Z,209.17
2023-04-18T11:02:25.332Z,211.90
2023-04-18T11:03:25.342Z,213.84
2023-04-18T11:04:25.328Z,207.89
2023-04-18T11:05:25.243Z,206.75
2023-04-18T11:06:25.264Z,208.29
2023-04-18T11:07:25.224Z,199.24
2023-04-18T11:08:25.234Z,205.40
2023-04-18T11:09:25.224Z,175.54
2023-04-18T11:10:25.422Z,152.15
2023-04-18T11:11:25.770Z,117.29
2023-04-18T11:12:25.251Z,67.94
2023-04-18T11:13:25.215Z,22.62
2023-04-18T11:14:25.260Z,0.00
2023-04-18T11:15:25.390Z,0.00
2023-04-18T11:16:25.328Z,0.00
2023-04-18T11:17:25.289Z,0.00
2023-04-18T11:18:25.158Z,0.00
2023-04-18T11:19:25.220Z,0.00
2023-04-18T11:20:25.151Z,0.00
2023-04-18T11:21:25.159Z,0.00
2023-04-18T11:22:25.262Z,0.00
2023-04-18T11:23:25.183Z,0.00
2023-04-18T11:24:25.116Z,2.39
2023-04-18T11:25:25.114Z,5.70
2023-04-18T11:26:25.100Z,12.64
2023-04-18T11:27:25.117Z,14.62
2023-04-18T11:28:25.118Z,22.40
2023-04-18T11:29:25.115Z,26.47
2023-04-18T11:30:25.055Z,28.09
2023-04-18T11:31:25.138Z,27.53
2023-04-18T11:32:25.161Z,25.58
2023-04-18T11:33:25.065Z,25.27
2023-04-18T11:34:25.047Z,25.22
2023-04-18T11:35:25.231Z,25.73
2023-04-18T11:36:25.031Z,35.26
2023-04-18T11:37:25.041Z,39.33
2023-04-18T11:38:25.021Z,39.07
2023-04-18T11:39:25.034Z,43.77
2023-04-18T11:40:25.109Z,46.53
2023-04-18T11:41:25.167Z,44.64
2023-04-18T11:42:25.184Z,49.24
2023-04-18T11:43:25.240Z,46.52
2023-04-18T11:44:25.286Z,45.01
2023-04-18T11:45:25.370Z,41.78
2023-04-18T11:46:25.616Z,52.86
2023-04-18T11:47:25.510Z,70.68
2023-04-18T11:48:25.510Z,61.29
2023-04-18T11:49:25.536Z,70.62
2023-04-18T11:50:25.633Z,99.35
2023-04-18T11:51:25.576Z,127.16
2023-04-18T11:52:25.542Z,131.17
2023-04-18T11:53:25.658Z,125.44
2023-04-18T11:54:25.615Z,126.19
2023-04-18T11:55:25.785Z,130.21
2023-04-18T11:56:25.742Z,132.55
2023-04-18T11:57:25.799Z,132.68
2023-04-18T11:58:25.845Z,134.19
2023-04-18T11:59:25.900Z,137.92
2023-04-18T12:00:25.934Z,141.15
2023-04-18T12:01:26.010Z,135.40
2023-04-18T12:02:26.149Z,139.26
2023-04-18T12:03:26.227Z,140.49
2023-04-18T12:04:26.387Z,140.85
2023-04-18T12:05:26.491Z,142.89
2023-04-18T12:06:26.297Z,148.33
2023-04-18T12:07:26.201Z,150.39
2023-04-18T12:08:26.196Z,151.22
2023-04-18T12:09:26.244Z,156.71
2023-04-18T12:10:26.315Z,158.79
2023-04-18T12:11:26.266Z,160.18
2023-04-18T12:12:26.304Z,162.98
2023-04-18T12:13:26.324Z,163.06
2023-04-18T12:14:26.330Z,165.02
2023-04-18T12:15:26.376Z,167.02
2023-04-18T12:16:26.525Z,159.83
2023-04-18T12:17:26.820Z,119.82
2023-04-18T12:18:26.446Z,97.32
2023-04-18T12:19:26.589Z,75.42
2023-04-18T12:20:26.521Z,52.32
2023-04-18T12:21:26.517Z,52.12
2023-04-18T12:22:26.776Z,56.03
2023-04-18T12:23:26.561Z,59.97
2023-04-18T12:24:26.570Z,65.93
2023-04-18T12:25:27.699Z,71.33
2023-04-18T12:26:26.590Z,81.34
2023-04-18T12:27:26.650Z,90.81
2023-04-18T12:28:26.735Z,100.15
2023-04-18T12:29:26.773Z,109.45
2023-04-18T12:30:26.818Z,119.09
2023-04-18T12:31:26.869Z,132.20
2023-04-18T12:32:26.938Z,139.46